createdAt,value
2022-11-30T00:00:53.982Z,18.05
2022-11-30T00:03:15.936Z,17.73
2022-11-30T00:05:38.002Z,17.90
2022-11-30T00:08:01.804Z,18.13
2022-11-30T00:10:24.196Z,18.15
2022-11-30T00:12:46.866Z,17.63
2022-11-30T00:15:14.455Z,16.47
2022-11-30T00:17:36.516Z,18.43
2022-11-30T00:19:58.565Z,18.03
2022-11-30T00:22:21.028Z,17.10
2022-11-30T00:24:42.959Z,17.40
2022-11-30T00:27:05.056Z,17.87
2022-11-30T00:29:27.159Z,17.60
2022-11-30T00:31:49.217Z,17.00
2022-11-30T00:34:11.172Z,17.80
2022-11-30T00:36:33.264Z,18.07
2022-11-30T00:38:55.962Z,18.03
2022-11-30T00:41:19.551Z,17.93
2022-11-30T00:43:41.886Z,17.98
2022-11-30T00:46:04.389Z,18.10
2022-11-30T00:48:26.762Z,16.77
2022-11-30T00:50:50.982Z,18.03
2022-11-30T00:53:13.088Z,16.98
2022-11-30T00:55:35.261Z,16.17
2022-11-30T00:57:57.865Z,17.40
2022-11-30T01:00:20.257Z,17.20
2022-11-30T01:02:42.353Z,15.90
2022-11-30T01:05:04.630Z,16.53
2022-11-30T01:07:26.695Z,17.50
2022-11-30T01:09:48.775Z,16.93
2022-11-30T01:12:10.818Z,17.30
2022-11-30T01:14:32.947Z,16.17
2022-11-30T01:16:56.474Z,17.10
2022-11-30T01:19:18.840Z,16.90
2022-11-30T01:21:42.970Z,17.37
2022-11-30T01:24:06.173Z,16.35
2022-11-30T01:26:28.338Z,16.97
2022-11-30T01:28:55.572Z,17.10
2022-11-30T01:31:17.930Z,17.63
2022-11-30T01:33:41.895Z,18.00
2022-11-30T01:36:22.989Z,18.40
2022-11-30T01:38:55.655Z,19.33
2022-11-30T01:41:22.906Z,18.83
2022-11-30T01:43:54.608Z,19.80
2022-11-30T01:46:40.800Z,20.37
2022-11-30T01:49:05.393Z,18.53
2022-11-30T01:51:36.187Z,18.77
2022-11-30T01:53:59.101Z,19.17
2022-11-30T01:56:21.235Z,18.57
2022-11-30T01:58:43.286Z,19.47
2022-11-30T02:01:06.107Z,20.03
2022-11-30T02:03:42.349Z,19.80
2022-11-30T02:06:04.738Z,19.67
2022-11-30T02:08:28.732Z,20.47
2022-11-30T02:11:00.273Z,20.90
2022-11-30T02:13:46.954Z,19.90
2022-11-30T02:16:43.110Z,19.67
2022-11-30T02:19:14.469Z,21.83
2022-11-30T02:21:51.695Z,20.50
2022-11-30T02:24:46.024Z,22.90
2022-11-30T02:27:20.358Z,20.70
2022-11-30T02:30:20.059Z,20.23
2022-11-30T02:32:54.082Z,19.80
2022-11-30T02:35:25.315Z,21.00
2022-11-30T02:37:51.766Z,20.33
2022-11-30T02:40:19.740Z,20.50
2022-11-30T02:42:41.755Z,20.43
2022-11-30T02:45:04.998Z,20.90
2022-11-30T02:47:46.911Z,21.03
2022-11-30T02:50:18.760Z,19.07
2022-11-30T02:52:41.589Z,19.27
2022-11-30T02:55:09.497Z,19.67
2022-11-30T02:57:31.615Z,18.40
2022-11-30T02:59:54.357Z,19.90
2022-11-30T03:02:16.525Z,19.90
2022-11-30T03:04:38.537Z,19.80
2022-11-30T03:07:00.686Z,18.67
2022-11-30T03:09:25.681Z,18.80
2022-11-30T03:11:47.889Z,19.37
2022-11-30T03:14:10.042Z,19.60
2022-11-30T03:16:32.266Z,19.60
2022-11-30T03:18:54.353Z,18.40
2022-11-30T03:21:16.467Z,20.10
2022-11-30T03:23:39.743Z,18.13
2022-11-30T03:26:03.277Z,19.33
2022-11-30T03:28:26.617Z,19.57
2022-11-30T03:30:50.144Z,20.93
2022-11-30T03:33:12.195Z,20.23
2022-11-30T03:35:34.286Z,18.30
2022-11-30T03:37:56.405Z,20.40
2022-11-30T03:40:18.840Z,19.63
2022-11-30T03:42:41.018Z,18.87
2022-11-30T03:45:03.973Z,17.80
2022-11-30T03:47:26.056Z,19.23
2022-11-30T03:49:48.104Z,18.13
2022-11-30T03:52:10.196Z,19.67
2022-11-30T03:54:32.354Z,20.03
2022-11-30T03:56:54.488Z,18.83
2022-11-30T03:59:16.684Z,19.70
2022-11-30T04:01:41.080Z,19.40
2022-11-30T04:06:25.524Z,19.37
2022-11-30T04:08:48.503Z,20.00
2022-11-30T04:11:11.646Z,19.57
2022-11-30T04:13:36.060Z,20.07
2022-11-30T04:15:58.564Z,20.15
2022-11-30T04:18:23.281Z,19.97
2022-11-30T04:20:45.528Z,20.43
2022-11-30T04:23:08.896Z,20.13
2022-11-30T04:25:30.890Z,21.17
2022-11-30T04:27:53.191Z,19.27
2022-11-30T04:30:16.543Z,20.80
2022-11-30T04:32:38.506Z,20.37
2022-11-30T04:35:00.517Z,19.37
2022-11-30T04:37:22.620Z,19.40
2022-11-30T04:39:45.089Z,19.87
2022-11-30T04:42:07.737Z,20.77
2022-11-30T04:44:29.791Z,20.23
2022-11-30T04:46:52.103Z,20.37
2022-11-30T04:49:14.170Z,19.27
2022-11-30T04:51:36.610Z,18.97
2022-11-30T04:53:58.702Z,19.60
2022-11-30T04:56:21.015Z,20.17
2022-11-30T04:58:43.106Z,20.23
2022-11-30T05:01:05.373Z,19.60
2022-11-30T05:03:27.588Z,18.83
2022-11-30T05:05:49.838Z,20.17
2022-11-30T05:08:11.737Z,20.70
2022-11-30T05:10:33.862Z,20.47
2022-11-30T05:12:57.393Z,18.83
2022-11-30T05:15:19.907Z,19.00
2022-11-30T05:17:41.763Z,20.30
2022-11-30T05:20:04.090Z,19.97
2022-11-30T05:22:25.860Z,19.33
2022-11-30T05:24:48.033Z,20.33
2022-11-30T05:27:15.287Z,19.27
2022-11-30T05:29:39.811Z,18.67
2022-11-30T05:32:02.413Z,20.17
2022-11-30T05:34:24.303Z,19.60
2022-11-30T05:36:46.102Z,19.47
2022-11-30T05:39:07.870Z,18.57
2022-11-30T05:41:29.730Z,20.03
2022-11-30T05:43:51.562Z,20.37
2022-11-30T05:46:13.567Z,17.00
2022-11-30T05:48:37.187Z,17.07
2022-11-30T05:51:12.711Z,15.25
2022-11-30T05:53:35.114Z,16.23
2022-11-30T05:55:57.082Z,18.20
2022-11-30T05:58:18.884Z,16.33
2022-11-30T06:00:40.708Z,17.50
2022-11-30T06:03:02.942Z,18.43
2022-11-30T06:05:26.919Z,18.83
2022-11-30T06:07:48.821Z,18.67
2022-11-30T06:10:11.767Z,18.27
2022-11-30T06:12:33.629Z,18.17
2022-11-30T06:14:55.556Z,18.57
2022-11-30T06:17:17.629Z,18.67
2022-11-30T06:19:39.505Z,18.83
2022-11-30T06:22:01.343Z,17.70
2022-11-30T06:24:23.148Z,19.03
2022-11-30T06:26:45.077Z,19.07
2022-11-30T06:29:06.902Z,19.33
2022-11-30T06:31:28.775Z,19.07
2022-11-30T06:33:50.809Z,18.70
2022-11-30T06:36:12.582Z,17.67
2022-11-30T06:38:34.417Z,18.80
2022-11-30T06:41:07.605Z,19.07
2022-11-30T06:43:37.116Z,18.17
2022-11-30T06:45:58.942Z,20.17
2022-11-30T06:48:22.981Z,20.03
2022-11-30T06:50:49.936Z,19.55
2022-11-30T06:53:12.063Z,18.27
2022-11-30T06:55:35.370Z,18.37
2022-11-30T06:58:09.028Z,19.40
2022-11-30T07:00:31.060Z,20.70
2022-11-30T07:02:52.866Z,19.40
2022-11-30T07:05:14.777Z,19.10
2022-11-30T07:07:36.701Z,18.80
2022-11-30T07:09:58.972Z,17.27
2022-11-30T07:12:21.004Z,18.00
2022-11-30T07:14:42.947Z,17.93
2022-11-30T07:17:04.952Z,18.23
2022-11-30T07:19:26.757Z,19.27
2022-11-30T07:40:33.410Z,16.53
2022-11-30T07:42:55.983Z,14.03
2022-11-30T07:45:17.797Z,13.40
2022-11-30T07:47:40.874Z,13.13
2022-11-30T08:35:20.023Z,19.70
2022-11-30T08:45:09.387Z,16.10
2022-11-30T08:48:08.937Z,16.75
2022-11-30T08:50:30.814Z,13.70
2022-11-30T08:52:55.569Z,15.20
2022-11-30T08:55:17.372Z,15.97
2022-11-30T09:51:21.793Z,19.00
2022-11-30T09:54:35.581Z,22.17
2022-11-30T09:56:57.861Z,17.40
2022-11-30T09:59:29.583Z,18.77
2022-11-30T10:01:56.554Z,17.60
2022-11-30T10:04:29.142Z,18.77
2022-11-30T10:07:44.474Z,20.40
2022-11-30T10:17:48.005Z,24.13
2022-11-30T10:20:21.908Z,21.73
2022-11-30T10:23:12.475Z,23.95
2022-11-30T10:25:58.553Z,24.20
2022-11-30T10:28:52.865Z,24.47
2022-11-30T10:31:16.476Z,23.00
2022-11-30T10:33:54.326Z,26.80
2022-11-30T10:36:37.192Z,24.37
2022-11-30T10:39:14.449Z,24.00
2022-11-30T10:41:48.645Z,22.50
2022-11-30T10:44:23.578Z,23.67
2022-11-30T10:51:12.598Z,25.17
2022-11-30T10:54:23.639Z,23.23
2022-11-30T10:56:46.297Z,24.60
2022-11-30T10:59:18.911Z,25.73
2022-11-30T11:01:42.610Z,25.60
2022-11-30T11:04:25.902Z,26.60
2022-11-30T11:11:39.595Z,24.70
2022-11-30T11:17:48.748Z,21.33
2022-11-30T11:23:42.409Z,22.83
2022-11-30T11:26:27.531Z,23.53
2022-11-30T11:29:31.257Z,24.25
2022-11-30T11:31:53.350Z,23.73
2022-11-30T11:34:36.880Z,23.27
2022-11-30T11:37:12.370Z,21.63
2022-11-30T11:39:34.181Z,20.60
2022-11-30T11:41:56.333Z,20.30
2022-11-30T11:44:28.008Z,19.90
2022-11-30T11:47:25.736Z,20.07
2022-11-30T11:49:50.850Z,21.17
2022-11-30T11:52:13.363Z,19.10
2022-11-30T11:54:45.015Z,18.40
2022-11-30T11:57:20.140Z,20.60
2022-11-30T12:05:16.156Z,18.00
2022-11-30T12:08:07.919Z,17.07
2022-11-30T12:10:51.770Z,18.33
2022-11-30T12:13:39.097Z,16.58
2022-11-30T12:16:07.261Z,15.60
2022-11-30T12:19:07.620Z,15.17
2022-11-30T12:22:03.713Z,16.47
2022-11-30T12:25:24.591Z,15.90
2022-11-30T12:28:01.246Z,13.47
2022-11-30T12:30:56.776Z,14.40
2022-11-30T12:36:20.068Z,12.47
2022-11-30T12:38:53.194Z,11.73
2022-11-30T12:41:42.438Z,11.73
2022-11-30T12:44:35.599Z,11.17
2022-11-30T12:48:03.370Z,11.80
2022-11-30T12:50:48.888Z,11.70
2022-11-30T12:53:39.672Z,12.13
2022-11-30T12:56:26.950Z,11.10
2022-11-30T13:03:49.803Z,12.90
2022-11-30T13:06:36.479Z,11.90
2022-11-30T13:09:24.011Z,12.40
2022-11-30T13:11:55.319Z,12.27
2022-11-30T13:14:26.681Z,13.13
2022-11-30T13:16:59.513Z,13.47
2022-11-30T13:19:48.333Z,12.83
2022-11-30T13:23:03.600Z,12.50
2022-11-30T13:26:09.258Z,12.53
2022-11-30T13:28:42.114Z,11.63
2022-11-30T13:31:16.701Z,12.70
2022-11-30T13:33:54.168Z,12.80
2022-11-30T13:36:45.488Z,12.83
2022-11-30T13:39:30.490Z,9.23
2022-11-30T13:42:25.950Z,10.80
2022-11-30T13:44:48.120Z,11.52
2022-11-30T13:47:19.908Z,12.90
2022-11-30T13:49:42.441Z,12.97
2022-11-30T13:52:23.136Z,12.83
2022-11-30T13:54:45.500Z,12.50
2022-11-30T13:57:29.893Z,12.47
2022-11-30T13:59:54.455Z,12.13
2022-11-30T14:02:54.440Z,11.90
2022-11-30T14:05:16.574Z,13.47
2022-11-30T14:07:39.078Z,12.10
2022-11-30T14:10:01.144Z,12.63
2022-11-30T14:12:50.954Z,13.30
2022-11-30T14:20:19.528Z,12.47
2022-11-30T14:22:43.507Z,12.87
2022-11-30T14:25:16.377Z,12.63
2022-11-30T14:27:39.147Z,11.27
2022-11-30T14:30:04.331Z,12.07
2022-11-30T14:32:38.070Z,12.13
2022-11-30T14:35:13.782Z,11.37
2022-11-30T14:38:03.940Z,12.43
2022-11-30T14:40:30.453Z,10.93
2022-11-30T14:42:57.914Z,12.13
2022-11-30T14:45:32.783Z,12.87
2022-11-30T14:50:58.510Z,13.30
2022-11-30T14:53:47.300Z,10.68
2022-11-30T14:56:59.465Z,10.57
2022-11-30T15:04:14.902Z,12.10
2022-11-30T15:06:40.029Z,12.47
2022-11-30T15:09:02.742Z,11.67
2022-11-30T15:11:25.527Z,14.13
2022-11-30T15:13:51.516Z,12.63
2022-11-30T15:16:53.275Z,12.40
2022-11-30T15:19:26.831Z,12.03
2022-11-30T15:21:50.389Z,11.20
2022-11-30T15:24:12.509Z,11.75
2022-11-30T15:26:41.857Z,12.70
2022-11-30T15:29:45.907Z,11.80
2022-11-30T15:36:15.868Z,12.10
2022-11-30T15:38:30.516Z,12.20
2022-11-30T15:41:04.478Z,11.87
2022-11-30T15:43:26.907Z,11.63
2022-11-30T15:45:59.077Z,12.90
2022-11-30T15:48:40.727Z,11.57
2022-11-30T15:51:02.833Z,12.40
2022-11-30T15:53:31.519Z,11.80
2022-11-30T15:55:59.137Z,12.10
2022-11-30T15:58:30.349Z,12.20
2022-11-30T16:01:17.183Z,12.47
2022-11-30T16:04:01.611Z,12.27
2022-11-30T16:06:25.161Z,12.25
2022-11-30T16:08:48.507Z,11.80
2022-11-30T16:11:11.046Z,12.57
2022-11-30T16:13:33.465Z,13.00
2022-11-30T16:15:55.229Z,12.90
2022-11-30T16:18:19.147Z,11.87
2022-11-30T16:20:48.201Z,12.48
2022-11-30T16:23:15.599Z,12.63
2022-11-30T16:25:37.459Z,12.57
2022-11-30T16:27:59.311Z,13.13
2022-11-30T16:30:23.752Z,14.07
2022-11-30T16:35:36.617Z,13.13
2022-11-30T16:37:58.502Z,14.63
2022-11-30T16:45:37.245Z,14.40
2022-11-30T16:47:59.093Z,15.37
2022-11-30T16:50:21.043Z,16.90
2022-11-30T16:52:43.834Z,16.73
2022-11-30T16:55:15.835Z,20.17
2022-11-30T16:57:37.662Z,17.83
2022-11-30T16:59:59.502Z,18.93
2022-11-30T17:02:23.634Z,18.73
2022-11-30T17:04:46.197Z,18.75
2022-11-30T17:07:09.112Z,19.70
2022-11-30T17:09:34.516Z,19.63
2022-11-30T17:11:56.504Z,20.17
2022-11-30T17:14:22.402Z,20.43
2022-11-30T17:16:45.307Z,18.90
2022-11-30T17:19:07.815Z,19.63
2022-11-30T17:21:34.607Z,17.63
2022-11-30T17:23:57.746Z,18.80
2022-11-30T17:26:19.974Z,20.27
2022-11-30T17:28:42.343Z,19.20
2022-11-30T17:31:05.455Z,19.53
2022-11-30T17:33:35.504Z,20.43
2022-11-30T17:35:58.744Z,18.63
2022-11-30T17:38:20.549Z,19.67
2022-11-30T17:40:42.530Z,20.00
2022-11-30T17:43:04.290Z,19.73
2022-11-30T17:45:26.167Z,19.70
2022-11-30T17:47:48.010Z,19.53
2022-11-30T17:50:10.396Z,21.60
2022-11-30T17:52:32.257Z,21.10
2022-11-30T17:54:54.253Z,20.80
2022-11-30T17:57:16.212Z,20.67
2022-11-30T17:59:38.180Z,21.13
2022-11-30T18:02:00.136Z,21.20
2022-11-30T18:04:22.085Z,22.87
2022-11-30T18:06:44.226Z,22.43
2022-11-30T18:09:06.326Z,21.33
2022-11-30T18:11:28.416Z,23.90
2022-11-30T18:13:55.067Z,21.27
2022-11-30T18:16:22.053Z,19.83
2022-11-30T18:18:48.107Z,21.73
2022-11-30T18:21:13.854Z,20.63
2022-11-30T18:23:37.275Z,20.87
2022-11-30T18:25:59.075Z,20.43
2022-11-30T18:28:20.898Z,22.30
2022-11-30T18:30:42.848Z,21.37
2022-11-30T18:33:04.727Z,21.13
2022-11-30T18:35:26.678Z,20.37
2022-11-30T18:37:48.595Z,19.20
2022-11-30T18:40:11.358Z,21.83
2022-11-30T18:42:33.291Z,23.43
2022-11-30T18:44:56.039Z,22.97
2022-11-30T18:47:17.903Z,21.20
2022-11-30T18:49:39.810Z,19.73
2022-11-30T18:52:01.631Z,22.57
2022-11-30T18:54:25.292Z,22.20
2022-11-30T18:56:47.102Z,21.25
2022-11-30T18:59:14.394Z,20.77
2022-11-30T19:01:36.973Z,22.97
2022-11-30T19:04:07.032Z,22.00
2022-11-30T19:06:32.778Z,19.73
2022-11-30T19:08:54.690Z,19.50
2022-11-30T19:11:17.845Z,20.13
2022-11-30T19:13:40.258Z,21.60
2022-11-30T19:16:12.102Z,20.67
2022-11-30T19:18:35.663Z,19.90
2022-11-30T19:20:57.875Z,21.42
2022-11-30T19:23:19.663Z,20.50
2022-11-30T19:25:41.582Z,21.53
2022-11-30T19:28:03.812Z,21.57
2022-11-30T19:30:26.438Z,23.17
2022-11-30T19:32:48.410Z,21.50
2022-11-30T19:35:10.308Z,22.87
2022-11-30T19:37:32.104Z,22.00
2022-11-30T19:39:53.983Z,22.23
2022-11-30T19:42:15.984Z,23.07
2022-11-30T19:44:37.982Z,24.40
2022-11-30T19:46:59.807Z,22.93
2022-11-30T19:49:21.686Z,23.73
2022-11-30T19:51:43.552Z,22.87
2022-11-30T19:54:05.527Z,23.70
2022-11-30T19:56:31.334Z,22.43
2022-11-30T19:58:53.617Z,21.03
2022-11-30T20:01:19.600Z,23.27
2022-11-30T20:03:44.325Z,21.90
2022-11-30T20:06:06.842Z,21.43
2022-11-30T20:08:28.993Z,21.33
2022-11-30T20:10:50.919Z,22.97
2022-11-30T20:13:12.820Z,21.60
2022-11-30T20:15:38.231Z,22.30
2022-11-30T20:18:00.114Z,20.60
2022-11-30T20:20:21.969Z,20.87
2022-11-30T20:22:43.815Z,21.40
2022-11-30T20:25:06.492Z,20.87
2022-11-30T20:27:28.391Z,21.50
2022-11-30T20:29:51.783Z,20.03
2022-11-30T20:32:13.613Z,20.30
2022-11-30T20:34:40.964Z,24.20
2022-11-30T20:37:05.365Z,21.63
2022-11-30T20:39:27.445Z,20.07
2022-11-30T20:41:49.335Z,20.60
2022-11-30T20:44:15.886Z,20.63
2022-11-30T20:46:37.892Z,21.47
2022-11-30T20:49:01.893Z,21.93
2022-11-30T20:51:32.072Z,23.05
2022-11-30T20:53:54.822Z,22.60
2022-11-30T20:56:17.442Z,25.93
2022-11-30T20:58:39.488Z,23.87
2022-11-30T21:01:10.545Z,23.50
2022-11-30T21:03:32.479Z,23.70
2022-11-30T21:05:54.840Z,22.73
2022-11-30T21:08:16.951Z,24.83
2022-11-30T21:10:40.431Z,24.87
2022-11-30T21:13:02.253Z,23.27
2022-11-30T21:15:24.260Z,25.33
2022-11-30T21:17:46.069Z,23.77
2022-11-30T21:20:08.830Z,23.87
2022-11-30T21:22:30.729Z,26.17
2022-11-30T21:24:54.905Z,28.63
2022-11-30T21:27:17.037Z,25.08
2022-11-30T21:29:38.915Z,26.00
2022-11-30T21:32:00.723Z,29.73
2022-11-30T21:34:22.665Z,28.03
2022-11-30T21:36:44.568Z,27.53
2022-11-30T21:39:07.653Z,28.90
2022-11-30T21:41:30.094Z,29.13
2022-11-30T21:43:51.968Z,26.07
2022-11-30T21:46:17.807Z,25.83
2022-11-30T21:48:42.702Z,28.97
2022-11-30T21:51:11.441Z,27.33
2022-11-30T21:53:39.014Z,28.33
2022-11-30T21:56:07.527Z,26.90
2022-11-30T21:58:35.291Z,28.97
2022-11-30T22:00:59.181Z,26.73
2022-11-30T22:03:21.201Z,27.60
2022-11-30T22:05:43.107Z,29.53
2022-11-30T22:08:05.221Z,27.87
2022-11-30T22:10:27.152Z,28.83
2022-11-30T22:12:48.954Z,28.50
2022-11-30T22:15:12.323Z,27.27
2022-11-30T22:17:34.189Z,26.63
2022-11-30T22:19:56.103Z,25.47
2022-11-30T22:22:17.897Z,23.00
2022-11-30T22:24:39.778Z,24.57
2022-11-30T22:27:01.593Z,25.13
2022-11-30T22:29:24.506Z,23.17
2022-11-30T22:31:50.341Z,29.47
2022-11-30T22:34:13.351Z,23.40
2022-11-30T22:36:39.686Z,23.47
2022-11-30T22:39:12.341Z,26.00
2022-11-30T22:41:34.196Z,25.93
2022-11-30T22:43:58.092Z,26.10
2022-11-30T22:46:30.307Z,26.35
2022-11-30T22:48:53.068Z,25.13
2022-11-30T22:51:24.407Z,24.53
2022-11-30T22:53:47.630Z,24.90
2022-11-30T22:56:19.946Z,23.70
2022-11-30T22:58:43.853Z,25.67
2022-11-30T23:01:19.469Z,25.88
2022-11-30T23:03:43.805Z,26.43
2022-11-30T23:06:07.250Z,26.65
2022-11-30T23:08:30.191Z,25.93
2022-11-30T23:10:58.325Z,26.33
2022-11-30T23:13:20.102Z,24.33
2022-11-30T23:15:42.178Z,26.23
2022-11-30T23:18:04.477Z,26.77
2022-11-30T23:20:26.474Z,25.87
2022-11-30T23:22:48.341Z,27.67
2022-11-30T23:25:10.152Z,26.53
2022-11-30T23:27:32.003Z,23.97
2022-11-30T23:29:53.812Z,24.57
2022-11-30T23:32:16.447Z,24.73
2022-11-30T23:34:38.506Z,23.67
2022-11-30T23:37:00.354Z,25.20
2022-11-30T23:39:22.245Z,26.87
2022-11-30T23:41:44.510Z,22.93
2022-11-30T23:44:07.570Z,25.03
2022-11-30T23:46:30.388Z,22.97
2022-11-30T23:48:52.718Z,23.90
2022-11-30T23:51:14.586Z,23.87
2022-11-30T23:53:36.390Z,22.67
2022-11-30T23:56:03.853Z,23.30
2022-11-30T23:58:25.756Z,24.33
